sensor_id;sensor_type;location;lat;lon;timestamp;P1;durP1;ratioP1;P2;durP2;ratioP2
20511;SDS011;10414;52.074;5.126;2022-08-14T00:02:15;6.55;;;4.30;;
20511;SDS011;10414;52.074;5.126;2022-08-14T00:04:42;9.82;;;4.93;;
20511;SDS011;10414;52.074;5.126;2022-08-14T00:07:09;6.93;;;5.10;;
20511;SDS011;10414;52.074;5.126;2022-08-14T00:09:37;10.48;;;4.50;;
20511;SDS011;10414;52.074;5.126;2022-08-14T00:12:04;6.22;;;4.25;;
20511;SDS011;10414;52.074;5.126;2022-08-14T00:14:33;9.05;;;4.75;;
20511;SDS011;10414;52.074;5.126;2022-08-14T00:17:00;6.93;;;4.63;;
20511;SDS011;10414;52.074;5.126;2022-08-14T00:19:27;7.55;;;4.40;;
20511;SDS011;10414;52.074;5.126;2022-08-14T00:21:54;9.13;;;4.70;;
20511;SDS011;10414;52.074;5.126;2022-08-14T00:24:22;6.07;;;4.53;;
20511;SDS011;10414;52.074;5.126;2022-08-14T00:26:49;8.25;;;4.80;;
20511;SDS011;10414;52.074;5.126;2022-08-14T00:29:16;7.78;;;4.68;;
20511;SDS011;10414;52.074;5.126;2022-08-14T00:31:44;5.95;;;4.40;;
20511;SDS011;10414;52.074;5.126;2022-08-14T00:34:11;8.93;;;4.75;;
20511;SDS011;10414;52.074;5.126;2022-08-14T00:36:38;7.47;;;5.20;;
20511;SDS011;10414;52.074;5.126;2022-08-14T00:39:04;9.18;;;5.25;;
20511;SDS011;10414;52.074;5.126;2022-08-14T00:41:32;8.88;;;5.10;;
20511;SDS011;10414;52.074;5.126;2022-08-14T00:43:59;12.45;;;5.53;;
20511;SDS011;10414;52.074;5.126;2022-08-14T00:46:26;11.07;;;4.95;;
20511;SDS011;10414;52.074;5.126;2022-08-14T00:48:54;8.45;;;5.25;;
20511;SDS011;10414;52.074;5.126;2022-08-14T00:51:22;7.35;;;5.15;;
20511;SDS011;10414;52.074;5.126;2022-08-14T00:53:49;8.40;;;5.40;;
20511;SDS011;10414;52.074;5.126;2022-08-14T00:56:17;9.07;;;5.20;;
20511;SDS011;10414;52.074;5.126;2022-08-14T00:58:45;8.40;;;5.68;;
20511;SDS011;10414;52.074;5.126;2022-08-14T01:01:12;7.15;;;5.22;;
20511;SDS011;10414;52.074;5.126;2022-08-14T01:03:42;10.10;;;5.57;;
20511;SDS011;10414;52.074;5.126;2022-08-14T01:06:12;6.80;;;5.10;;
20511;SDS011;10414;52.074;5.126;2022-08-14T01:08:43;10.38;;;5.45;;
20511;SDS011;10414;52.074;5.126;2022-08-14T01:11:11;10.20;;;5.50;;
20511;SDS011;10414;52.074;5.126;2022-08-14T01:13:40;10.00;;;5.50;;
20511;SDS011;10414;52.074;5.126;2022-08-14T01:16:11;7.38;;;5.00;;
20511;SDS011;10414;52.074;5.126;2022-08-14T01:18:41;13.43;;;5.80;;
20511;SDS011;10414;52.074;5.126;2022-08-14T01:21:30;8.40;;;5.93;;
20511;SDS011;10414;52.074;5.126;2022-08-14T01:23:58;8.63;;;5.75;;
20511;SDS011;10414;52.074;5.126;2022-08-14T01:26:26;8.50;;;6.00;;
20511;SDS011;10414;52.074;5.126;2022-08-14T01:28:55;8.25;;;6.00;;
20511;SDS011;10414;52.074;5.126;2022-08-14T01:31:25;8.43;;;5.60;;
20511;SDS011;10414;52.074;5.126;2022-08-14T01:33:54;12.23;;;6.40;;
20511;SDS011;10414;52.074;5.126;2022-08-14T01:36:22;7.63;;;5.60;;
20511;SDS011;10414;52.074;5.126;2022-08-14T01:38:52;8.50;;;6.03;;
20511;SDS011;10414;52.074;5.126;2022-08-14T01:41:22;8.15;;;5.95;;
20511;SDS011;10414;52.074;5.126;2022-08-14T01:43:52;9.33;;;6.40;;
20511;SDS011;10414;52.074;5.126;2022-08-14T01:46:23;10.18;;;5.97;;
20511;SDS011;10414;52.074;5.126;2022-08-14T01:48:50;10.27;;;5.78;;
20511;SDS011;10414;52.074;5.126;2022-08-14T01:51:19;9.00;;;6.07;;
20511;SDS011;10414;52.074;5.126;2022-08-14T01:53:48;7.18;;;5.82;;
20511;SDS011;10414;52.074;5.126;2022-08-14T01:56:20;8.65;;;5.95;;
20511;SDS011;10414;52.074;5.126;2022-08-14T01:58:58;8.18;;;6.13;;
20511;SDS011;10414;52.074;5.126;2022-08-14T02:01:25;8.57;;;6.28;;
20511;SDS011;10414;52.074;5.126;2022-08-14T02:03:52;7.75;;;5.90;;
20511;SDS011;10414;52.074;5.126;2022-08-14T02:06:19;8.65;;;6.00;;
20511;SDS011;10414;52.074;5.126;2022-08-14T02:08:46;11.63;;;6.40;;
20511;SDS011;10414;52.074;5.126;2022-08-14T02:11:14;8.93;;;6.00;;
20511;SDS011;10414;52.074;5.126;2022-08-14T02:13:49;10.70;;;6.18;;
20511;SDS011;10414;52.074;5.126;2022-08-14T02:16:25;9.30;;;6.60;;
20511;SDS011;10414;52.074;5.126;2022-08-14T02:18:54;10.40;;;6.50;;
20511;SDS011;10414;52.074;5.126;2022-08-14T02:21:25;9.13;;;6.18;;
20511;SDS011;10414;52.074;5.126;2022-08-14T02:23:57;12.80;;;7.10;;
20511;SDS011;10414;52.074;5.126;2022-08-14T02:26:27;10.40;;;6.25;;
20511;SDS011;10414;52.074;5.126;2022-08-14T02:28:58;8.80;;;6.57;;
20511;SDS011;10414;52.074;5.126;2022-08-14T02:31:27;14.95;;;6.38;;
20511;SDS011;10414;52.074;5.126;2022-08-14T02:33:57;9.82;;;6.07;;
20511;SDS011;10414;52.074;5.126;2022-08-14T02:36:24;10.40;;;6.47;;
20511;SDS011;10414;52.074;5.126;2022-08-14T02:38:52;9.05;;;6.10;;
20511;SDS011;10414;52.074;5.126;2022-08-14T02:41:19;8.52;;;6.32;;
20511;SDS011;10414;52.074;5.126;2022-08-14T02:43:47;8.50;;;6.45;;
20511;SDS011;10414;52.074;5.126;2022-08-14T02:46:16;7.75;;;5.68;;
20511;SDS011;10414;52.074;5.126;2022-08-14T02:48:43;9.98;;;6.60;;
20511;SDS011;10414;52.074;5.126;2022-08-14T02:51:11;10.45;;;6.18;;
20511;SDS011;10414;52.074;5.126;2022-08-14T02:53:39;11.45;;;7.10;;
20511;SDS011;10414;52.074;5.126;2022-08-14T02:56:08;10.50;;;7.20;;
20511;SDS011;10414;52.074;5.126;2022-08-14T02:58:40;11.02;;;6.03;;
20511;SDS011;10414;52.074;5.126;2022-08-14T03:01:10;8.35;;;6.07;;
20511;SDS011;10414;52.074;5.126;2022-08-14T03:03:40;8.00;;;5.80;;
20511;SDS011;10414;52.074;5.126;2022-08-14T03:06:08;8.57;;;6.45;;
20511;SDS011;10414;52.074;5.126;2022-08-14T03:08:36;9.38;;;6.78;;
20511;SDS011;10414;52.074;5.126;2022-08-14T03:11:05;9.65;;;6.45;;
20511;SDS011;10414;52.074;5.126;2022-08-14T03:13:33;10.90;;;6.72;;
20511;SDS011;10414;52.074;5.126;2022-08-14T03:16:02;8.73;;;6.50;;
20511;SDS011;10414;52.074;5.126;2022-08-14T03:18:30;10.57;;;6.75;;
20511;SDS011;10414;52.074;5.126;2022-08-14T03:21:00;10.40;;;7.15;;
20511;SDS011;10414;52.074;5.126;2022-08-14T03:23:29;12.63;;;6.88;;
20511;SDS011;10414;52.074;5.126;2022-08-14T03:25:58;10.13;;;6.90;;
20511;SDS011;10414;52.074;5.126;2022-08-14T03:28:27;9.37;;;6.43;;
20511;SDS011;10414;52.074;5.126;2022-08-14T03:30:55;10.15;;;6.57;;
20511;SDS011;10414;52.074;5.126;2022-08-14T03:33:22;10.50;;;7.10;;
20511;SDS011;10414;52.074;5.126;2022-08-14T03:35:49;11.20;;;7.20;;
20511;SDS011;10414;52.074;5.126;2022-08-14T03:38:17;13.27;;;7.40;;
20511;SDS011;10414;52.074;5.126;2022-08-14T03:40:44;14.32;;;7.55;;
20511;SDS011;10414;52.074;5.126;2022-08-14T03:43:12;9.80;;;7.50;;
20511;SDS011;10414;52.074;5.126;2022-08-14T03:45:39;9.02;;;7.30;;
20511;SDS011;10414;52.074;5.126;2022-08-14T03:48:09;11.63;;;6.60;;
20511;SDS011;10414;52.074;5.126;2022-08-14T03:50:39;10.90;;;7.25;;
20511;SDS011;10414;52.074;5.126;2022-08-14T03:53:08;11.32;;;7.30;;
20511;SDS011;10414;52.074;5.126;2022-08-14T03:55:38;13.18;;;7.15;;
20511;SDS011;10414;52.074;5.126;2022-08-14T03:58:05;10.57;;;6.90;;
20511;SDS011;10414;52.074;5.126;2022-08-14T04:00:33;10.25;;;7.43;;
20511;SDS011;10414;52.074;5.126;2022-08-14T04:03:04;10.60;;;7.55;;
20511;SDS011;10414;52.074;5.126;2022-08-14T04:05:34;12.00;;;7.35;;
20511;SDS011;10414;52.074;5.126;2022-08-14T04:08:02;12.95;;;7.35;;
20511;SDS011;10414;52.074;5.126;2022-08-14T04:10:30;13.80;;;7.03;;
20511;SDS011;10414;52.074;5.126;2022-08-14T04:12:58;12.43;;;7.50;;
20511;SDS011;10414;52.074;5.126;2022-08-14T04:15:25;9.80;;;7.40;;
20511;SDS011;10414;52.074;5.126;2022-08-14T04:17:53;9.30;;;6.97;;
20511;SDS011;10414;52.074;5.126;2022-08-14T04:20:20;13.48;;;7.65;;
20511;SDS011;10414;52.074;5.126;2022-08-14T04:22:47;12.75;;;8.13;;
20511;SDS011;10414;52.074;5.126;2022-08-14T04:25:15;10.80;;;7.30;;
20511;SDS011;10414;52.074;5.126;2022-08-14T04:27:43;10.95;;;7.30;;
20511;SDS011;10414;52.074;5.126;2022-08-14T04:30:12;10.25;;;7.80;;
20511;SDS011;10414;52.074;5.126;2022-08-14T04:32:39;11.93;;;8.05;;
20511;SDS011;10414;52.074;5.126;2022-08-14T04:35:06;11.88;;;7.93;;
20511;SDS011;10414;52.074;5.126;2022-08-14T04:37:34;9.68;;;7.78;;
20511;SDS011;10414;52.074;5.126;2022-08-14T04:40:19;11.15;;;8.00;;
20511;SDS011;10414;52.074;5.126;2022-08-14T04:43:03;10.40;;;7.70;;
20511;SDS011;10414;52.074;5.126;2022-08-14T04:45:49;12.23;;;8.07;;
20511;SDS011;10414;52.074;5.126;2022-08-14T04:48:16;11.43;;;8.77;;
20511;SDS011;10414;52.074;5.126;2022-08-14T04:50:45;11.30;;;7.93;;
20511;SDS011;10414;52.074;5.126;2022-08-14T04:53:14;11.98;;;7.85;;
20511;SDS011;10414;52.074;5.126;2022-08-14T04:55:43;10.93;;;8.05;;
20511;SDS011;10414;52.074;5.126;2022-08-14T04:58:12;12.50;;;8.30;;
20511;SDS011;10414;52.074;5.126;2022-08-14T05:00:39;13.18;;;8.25;;
20511;SDS011;10414;52.074;5.126;2022-08-14T05:03:07;11.15;;;8.30;;
20511;SDS011;10414;52.074;5.126;2022-08-14T05:05:35;11.95;;;8.40;;
20511;SDS011;10414;52.074;5.126;2022-08-14T05:08:03;11.50;;;8.23;;
20511;SDS011;10414;52.074;5.126;2022-08-14T05:10:33;13.52;;;8.02;;
20511;SDS011;10414;52.074;5.126;2022-08-14T05:13:01;15.05;;;8.75;;
20511;SDS011;10414;52.074;5.126;2022-08-14T05:15:31;12.13;;;8.15;;
20511;SDS011;10414;52.074;5.126;2022-08-14T05:18:00;13.43;;;9.10;;
20511;SDS011;10414;52.074;5.126;2022-08-14T05:20:30;13.23;;;9.30;;
20511;SDS011;10414;52.074;5.126;2022-08-14T05:22:59;13.15;;;8.77;;
20511;SDS011;10414;52.074;5.126;2022-08-14T05:25:29;14.38;;;8.65;;
20511;SDS011;10414;52.074;5.126;2022-08-14T05:27:56;16.48;;;8.52;;
20511;SDS011;10414;52.074;5.126;2022-08-14T05:30:24;14.32;;;8.88;;
20511;SDS011;10414;52.074;5.126;2022-08-14T05:32:51;11.90;;;7.72;;
20511;SDS011;10414;52.074;5.126;2022-08-14T05:35:19;10.90;;;8.05;;
20511;SDS011;10414;52.074;5.126;2022-08-14T05:37:47;12.55;;;8.60;;
20511;SDS011;10414;52.074;5.126;2022-08-14T05:40:14;12.25;;;8.13;;
20511;SDS011;10414;52.074;5.126;2022-08-14T05:42:41;10.02;;;7.30;;
20511;SDS011;10414;52.074;5.126;2022-08-14T05:45:08;9.18;;;7.93;;
20511;SDS011;10414;52.074;5.126;2022-08-14T05:47:38;12.40;;;8.18;;
20511;SDS011;10414;52.074;5.126;2022-08-14T05:50:06;9.55;;;7.85;;
20511;SDS011;10414;52.074;5.126;2022-08-14T05:52:35;9.63;;;7.50;;
20511;SDS011;10414;52.074;5.126;2022-08-14T05:55:03;9.10;;;6.85;;
20511;SDS011;10414;52.074;5.126;2022-08-14T05:57:32;11.07;;;7.80;;
20511;SDS011;10414;52.074;5.126;2022-08-14T05:59:59;12.15;;;7.55;;
20511;SDS011;10414;52.074;5.126;2022-08-14T06:02:25;11.68;;;8.02;;
20511;SDS011;10414;52.074;5.126;2022-08-14T06:04:52;13.80;;;7.85;;
20511;SDS011;10414;52.074;5.126;2022-08-14T06:07:19;11.55;;;6.97;;
20511;SDS011;10414;52.074;5.126;2022-08-14T06:09:46;9.73;;;7.32;;
20511;SDS011;10414;52.074;5.126;2022-08-14T06:12:14;8.80;;;7.40;;
20511;SDS011;10414;52.074;5.126;2022-08-14T06:14:41;9.38;;;7.40;;
20511;SDS011;10414;52.074;5.126;2022-08-14T06:17:08;9.55;;;7.07;;
20511;SDS011;10414;52.074;5.126;2022-08-14T06:19:35;11.30;;;7.15;;
20511;SDS011;10414;52.074;5.126;2022-08-14T06:22:02;11.68;;;7.15;;
20511;SDS011;10414;52.074;5.126;2022-08-14T06:24:29;10.07;;;7.30;;
20511;SDS011;10414;52.074;5.126;2022-08-14T06:26:56;11.05;;;7.15;;
20511;SDS011;10414;52.074;5.126;2022-08-14T06:29:24;9.60;;;7.45;;
20511;SDS011;10414;52.074;5.126;2022-08-14T06:31:51;10.15;;;7.20;;
20511;SDS011;10414;52.074;5.126;2022-08-14T06:34:18;9.30;;;7.57;;
20511;SDS011;10414;52.074;5.126;2022-08-14T06:36:45;11.32;;;7.40;;
20511;SDS011;10414;52.074;5.126;2022-08-14T06:39:12;11.73;;;8.00;;
20511;SDS011;10414;52.074;5.126;2022-08-14T06:41:39;10.48;;;8.25;;
20511;SDS011;10414;52.074;5.126;2022-08-14T06:44:07;11.00;;;8.25;;
20511;SDS011;10414;52.074;5.126;2022-08-14T06:46:35;13.90;;;8.38;;
20511;SDS011;10414;52.074;5.126;2022-08-14T06:49:02;11.68;;;8.73;;
20511;SDS011;10414;52.074;5.126;2022-08-14T06:51:29;12.48;;;8.40;;
20511;SDS011;10414;52.074;5.126;2022-08-14T06:53:56;12.18;;;8.48;;
20511;SDS011;10414;52.074;5.126;2022-08-14T06:56:23;10.50;;;7.80;;
20511;SDS011;10414;52.074;5.126;2022-08-14T06:58:49;11.70;;;7.97;;
20511;SDS011;10414;52.074;5.126;2022-08-14T07:01:16;9.60;;;7.55;;
20511;SDS011;10414;52.074;5.126;2022-08-14T07:04:02;11.07;;;7.65;;
20511;SDS011;10414;52.074;5.126;2022-08-14T07:06:47;11.45;;;7.65;;
20511;SDS011;10414;52.074;5.126;2022-08-14T07:09:14;10.18;;;7.28;;
20511;SDS011;10414;52.074;5.126;2022-08-14T07:11:41;10.18;;;7.65;;
20511;SDS011;10414;52.074;5.126;2022-08-14T07:14:08;10.55;;;7.40;;
20511;SDS011;10414;52.074;5.126;2022-08-14T07:16:35;13.02;;;7.70;;
20511;SDS011;10414;52.074;5.126;2022-08-14T07:19:03;10.25;;;6.80;;
20511;SDS011;10414;52.074;5.126;2022-08-14T07:21:33;13.57;;;7.40;;
20511;SDS011;10414;52.074;5.126;2022-08-14T07:24:01;7.47;;;6.32;;
20511;SDS011;10414;52.074;5.126;2022-08-14T07:26:28;11.73;;;7.43;;
20511;SDS011;10414;52.074;5.126;2022-08-14T07:28:55;10.73;;;6.45;;
20511;SDS011;10414;52.074;5.126;2022-08-14T07:31:21;12.70;;;6.80;;
20511;SDS011;10414;52.074;5.126;2022-08-14T07:33:48;9.65;;;6.95;;
20511;SDS011;10414;52.074;5.126;2022-08-14T07:36:17;8.48;;;6.57;;
20511;SDS011;10414;52.074;5.126;2022-08-14T07:38:45;8.20;;;7.28;;
20511;SDS011;10414;52.074;5.126;2022-08-14T07:41:12;7.93;;;6.72;;
20511;SDS011;10414;52.074;5.126;2022-08-14T07:43:39;10.40;;;7.30;;
20511;SDS011;10414;52.074;5.126;2022-08-14T07:46:08;9.53;;;6.60;;
20511;SDS011;10414;52.074;5.126;2022-08-14T07:48:38;12.38;;;6.68;;
20511;SDS011;10414;52.074;5.126;2022-08-14T07:51:08;9.50;;;7.18;;
20511;SDS011;10414;52.074;5.126;2022-08-14T07:53:36;8.18;;;6.40;;
20511;SDS011;10414;52.074;5.126;2022-08-14T07:56:04;8.20;;;6.72;;
20511;SDS011;10414;52.074;5.126;2022-08-14T07:58:31;8.57;;;6.38;;
20511;SDS011;10414;52.074;5.126;2022-08-14T08:00:58;8.50;;;5.90;;
20511;SDS011;10414;52.074;5.126;2022-08-14T08:03:26;9.70;;;6.63;;
20511;SDS011;10414;52.074;5.126;2022-08-14T08:05:54;10.35;;;6.80;;
20511;SDS011;10414;52.074;5.126;2022-08-14T08:08:21;11.40;;;6.88;;
20511;SDS011;10414;52.074;5.126;2022-08-14T08:10:52;8.73;;;6.35;;
20511;SDS011;10414;52.074;5.126;2022-08-14T08:13:21;9.27;;;5.95;;
20511;SDS011;10414;52.074;5.126;2022-08-14T08:15:48;8.73;;;6.70;;
20511;SDS011;10414;52.074;5.126;2022-08-14T08:20:45;7.90;;;6.25;;
20511;SDS011;10414;52.074;5.126;2022-08-14T08:23:14;9.23;;;6.85;;
20511;SDS011;10414;52.074;5.126;2022-08-14T08:25:43;8.63;;;6.30;;
20511;SDS011;10414;52.074;5.126;2022-08-14T08:28:13;9.55;;;6.53;;
20511;SDS011;10414;52.074;5.126;2022-08-14T08:30:42;8.82;;;6.35;;
20511;SDS011;10414;52.074;5.126;2022-08-14T08:33:13;11.30;;;6.20;;
20511;SDS011;10414;52.074;5.126;2022-08-14T08:35:40;9.43;;;5.97;;
20511;SDS011;10414;52.074;5.126;2022-08-14T08:38:09;8.90;;;5.60;;
20511;SDS011;10414;52.074;5.126;2022-08-14T08:40:39;9.90;;;6.10;;
20511;SDS011;10414;52.074;5.126;2022-08-14T08:43:07;9.02;;;5.70;;
20511;SDS011;10414;52.074;5.126;2022-08-14T08:45:48;9.40;;;5.85;;
20511;SDS011;10414;52.074;5.126;2022-08-14T08:48:19;5.95;;;4.97;;
20511;SDS011;10414;52.074;5.126;2022-08-14T08:50:46;6.85;;;5.43;;
20511;SDS011;10414;52.074;5.126;2022-08-14T08:53:13;9.82;;;6.05;;
20511;SDS011;10414;52.074;5.126;2022-08-14T08:55:41;8.75;;;5.70;;
20511;SDS011;10414;52.074;5.126;2022-08-14T08:58:10;7.25;;;5.82;;
20511;SDS011;10414;52.074;5.126;2022-08-14T09:00:39;7.57;;;5.57;;
20511;SDS011;10414;52.074;5.126;2022-08-14T09:03:09;8.10;;;6.00;;
20511;SDS011;10414;52.074;5.126;2022-08-14T09:05:48;8.38;;;5.80;;
20511;SDS011;10414;52.074;5.126;2022-08-14T09:08:16;9.00;;;5.57;;
20511;SDS011;10414;52.074;5.126;2022-08-14T09:10:44;8.03;;;5.40;;
20511;SDS011;10414;52.074;5.126;2022-08-14T09:13:11;7.63;;;5.60;;
20511;SDS011;10414;52.074;5.126;2022-08-14T09:15:39;8.10;;;5.80;;
20511;SDS011;10414;52.074;5.126;2022-08-14T09:18:09;8.77;;;5.93;;
20511;SDS011;10414;52.074;5.126;2022-08-14T09:20:37;6.63;;;5.68;;
20511;SDS011;10414;52.074;5.126;2022-08-14T09:23:05;9.07;;;5.15;;
20511;SDS011;10414;52.074;5.126;2022-08-14T09:25:33;7.05;;;5.10;;
20511;SDS011;10414;52.074;5.126;2022-08-14T09:28:01;10.55;;;5.78;;
20511;SDS011;10414;52.074;5.126;2022-08-14T09:30:29;8.30;;;5.90;;
20511;SDS011;10414;52.074;5.126;2022-08-14T09:33:13;8.90;;;6.13;;
20511;SDS011;10414;52.074;5.126;2022-08-14T09:35:52;7.97;;;5.70;;
20511;SDS011;10414;52.074;5.126;2022-08-14T09:38:28;11.02;;;5.88;;
20511;SDS011;10414;52.074;5.126;2022-08-14T09:41:04;8.23;;;5.93;;
20511;SDS011;10414;52.074;5.126;2022-08-14T09:43:41;6.90;;;5.82;;
20511;SDS011;10414;52.074;5.126;2022-08-14T09:46:15;8.63;;;5.90;;
20511;SDS011;10414;52.074;5.126;2022-08-14T09:48:43;8.38;;;5.85;;
20511;SDS011;10414;52.074;5.126;2022-08-14T09:51:19;7.70;;;6.25;;
20511;SDS011;10414;52.074;5.126;2022-08-14T09:53:58;7.47;;;5.63;;
20511;SDS011;10414;52.074;5.126;2022-08-14T09:56:27;8.48;;;5.72;;
20511;SDS011;10414;52.074;5.126;2022-08-14T09:58:56;6.95;;;5.55;;
20511;SDS011;10414;52.074;5.126;2022-08-14T10:01:33;8.13;;;5.90;;
20511;SDS011;10414;52.074;5.126;2022-08-14T10:04:15;9.43;;;5.63;;
20511;SDS011;10414;52.074;5.126;2022-08-14T10:06:44;8.25;;;6.22;;
20511;SDS011;10414;52.074;5.126;2022-08-14T10:09:12;7.88;;;5.57;;
20511;SDS011;10414;52.074;5.126;2022-08-14T10:11:40;6.80;;;5.47;;
20511;SDS011;10414;52.074;5.126;2022-08-14T10:14:11;6.47;;;5.60;;
20511;SDS011;10414;52.074;5.126;2022-08-14T10:16:42;8.63;;;6.00;;
20511;SDS011;10414;52.074;5.126;2022-08-14T10:19:12;6.78;;;5.40;;
20511;SDS011;10414;52.074;5.126;2022-08-14T10:21:41;7.45;;;5.32;;
20511;SDS011;10414;52.074;5.126;2022-08-14T10:24:10;7.82;;;4.13;;
20511;SDS011;10414;52.074;5.126;2022-08-14T10:26:52;6.05;;;4.60;;
20511;SDS011;10414;52.074;5.126;2022-08-14T10:29:28;6.90;;;4.45;;
20511;SDS011;10414;52.074;5.126;2022-08-14T10:31:57;6.80;;;4.60;;
20511;SDS011;10414;52.074;5.126;2022-08-14T10:34:30;5.45;;;4.05;;
20511;SDS011;10414;52.074;5.126;2022-08-14T10:37:02;6.22;;;4.25;;
20511;SDS011;10414;52.074;5.126;2022-08-14T10:39:32;9.05;;;4.10;;
20511;SDS011;10414;52.074;5.126;2022-08-14T10:44:31;6.95;;;3.85;;
20511;SDS011;10414;52.074;5.126;2022-08-14T10:47:00;5.55;;;4.07;;
20511;SDS011;10414;52.074;5.126;2022-08-14T10:49:35;6.05;;;3.90;;
20511;SDS011;10414;52.074;5.126;2022-08-14T10:54:32;6.37;;;4.10;;
20511;SDS011;10414;52.074;5.126;2022-08-14T10:57:17;8.50;;;4.38;;
20511;SDS011;10414;52.074;5.126;2022-08-14T10:59:47;6.75;;;4.43;;
20511;SDS011;10414;52.074;5.126;2022-08-14T11:02:20;6.93;;;4.00;;
20511;SDS011;10414;52.074;5.126;2022-08-14T11:05:02;6.57;;;4.18;;
20511;SDS011;10414;52.074;5.126;2022-08-14T11:10:01;6.72;;;4.40;;
20511;SDS011;10414;52.074;5.126;2022-08-14T11:12:38;8.95;;;4.22;;
20511;SDS011;10414;52.074;5.126;2022-08-14T11:15:10;5.72;;;3.60;;
20511;SDS011;10414;52.074;5.126;2022-08-14T11:17:38;5.53;;;3.50;;
20511;SDS011;10414;52.074;5.126;2022-08-14T11:20:08;9.13;;;3.65;;
20511;SDS011;10414;52.074;5.126;2022-08-14T11:22:37;5.93;;;3.83;;
20511;SDS011;10414;52.074;5.126;2022-08-14T11:25:07;8.43;;;4.03;;
20511;SDS011;10414;52.074;5.126;2022-08-14T11:27:37;7.15;;;3.90;;
20511;SDS011;10414;52.074;5.126;2022-08-14T11:30:06;5.15;;;3.80;;
20511;SDS011;10414;52.074;5.126;2022-08-14T11:32:35;7.53;;;3.60;;
20511;SDS011;10414;52.074;5.126;2022-08-14T11:35:11;4.88;;;3.78;;
20511;SDS011;10414;52.074;5.126;2022-08-14T11:37:50;8.63;;;4.22;;
20511;SDS011;10414;52.074;5.126;2022-08-14T11:40:18;4.72;;;3.78;;
20511;SDS011;10414;52.074;5.126;2022-08-14T11:42:46;6.95;;;3.70;;
20511;SDS011;10414;52.074;5.126;2022-08-14T11:45:14;7.28;;;3.53;;
20511;SDS011;10414;52.074;5.126;2022-08-14T11:47:41;4.88;;;3.45;;
20511;SDS011;10414;52.074;5.126;2022-08-14T11:50:13;5.95;;;3.63;;
20511;SDS011;10414;52.074;5.126;2022-08-14T11:52:43;6.28;;;4.00;;
20511;SDS011;10414;52.074;5.126;2022-08-14T11:55:11;6.05;;;3.53;;
20511;SDS011;10414;52.074;5.126;2022-08-14T11:57:40;6.97;;;3.63;;
20511;SDS011;10414;52.074;5.126;2022-08-14T12:00:09;5.88;;;3.28;;
20511;SDS011;10414;52.074;5.126;2022-08-14T12:05:16;6.40;;;3.88;;
20511;SDS011;10414;52.074;5.126;2022-08-14T12:07:54;5.65;;;3.55;;
20511;SDS011;10414;52.074;5.126;2022-08-14T12:10:22;5.40;;;3.47;;
20511;SDS011;10414;52.074;5.126;2022-08-14T12:12:49;8.13;;;3.40;;
20511;SDS011;10414;52.074;5.126;2022-08-14T12:15:30;8.25;;;3.97;;
20511;SDS011;10414;52.074;5.126;2022-08-14T12:17:58;6.55;;;3.65;;
20511;SDS011;10414;52.074;5.126;2022-08-14T12:20:31;5.65;;;3.70;;
20511;SDS011;10414;52.074;5.126;2022-08-14T12:23:00;6.90;;;3.30;;
20511;SDS011;10414;52.074;5.126;2022-08-14T12:25:29;5.87;;;3.63;;
20511;SDS011;10414;52.074;5.126;2022-08-14T12:27:57;6.30;;;3.50;;
20511;SDS011;10414;52.074;5.126;2022-08-14T12:30:31;5.32;;;3.30;;
20511;SDS011;10414;52.074;5.126;2022-08-14T12:33:00;7.78;;;3.47;;
20511;SDS011;10414;52.074;5.126;2022-08-14T12:35:37;6.10;;;3.78;;
20511;SDS011;10414;52.074;5.126;2022-08-14T12:38:05;5.18;;;3.30;;
20511;SDS011;10414;52.074;5.126;2022-08-14T12:40:32;7.15;;;3.78;;
20511;SDS011;10414;52.074;5.126;2022-08-14T12:43:10;4.88;;;3.55;;
20511;SDS011;10414;52.074;5.126;2022-08-14T12:45:37;6.38;;;3.80;;
20511;SDS011;10414;52.074;5.126;2022-08-14T12:48:04;5.07;;;3.47;;
20511;SDS011;10414;52.074;5.126;2022-08-14T12:50:35;4.72;;;3.30;;
20511;SDS011;10414;52.074;5.126;2022-08-14T12:53:04;4.30;;;2.97;;
20511;SDS011;10414;52.074;5.126;2022-08-14T12:55:33;5.93;;;3.40;;
20511;SDS011;10414;52.074;5.126;2022-08-14T12:58:01;5.00;;;3.30;;
20511;SDS011;10414;52.074;5.126;2022-08-14T13:00:30;4.22;;;3.20;;
20511;SDS011;10414;52.074;5.126;2022-08-14T13:02:59;6.55;;;3.72;;
20511;SDS011;10414;52.074;5.126;2022-08-14T13:05:30;8.48;;;3.72;;
20511;SDS011;10414;52.074;5.126;2022-08-14T13:08:02;5.00;;;3.55;;
20511;SDS011;10414;52.074;5.126;2022-08-14T13:10:31;7.35;;;3.90;;
20511;SDS011;10414;52.074;5.126;2022-08-14T13:12:59;5.85;;;3.50;;
20511;SDS011;10414;52.074;5.126;2022-08-14T13:15:27;6.63;;;3.20;;
20511;SDS011;10414;52.074;5.126;2022-08-14T13:17:55;7.45;;;3.50;;
20511;SDS011;10414;52.074;5.126;2022-08-14T13:20:22;4.60;;;3.50;;
20511;SDS011;10414;52.074;5.126;2022-08-14T13:22:51;4.93;;;3.55;;
20511;SDS011;10414;52.074;5.126;2022-08-14T13:25:21;7.53;;;3.50;;
20511;SDS011;10414;52.074;5.126;2022-08-14T13:27:50;5.18;;;3.20;;
20511;SDS011;10414;52.074;5.126;2022-08-14T13:30:18;4.77;;;3.30;;
20511;SDS011;10414;52.074;5.126;2022-08-14T13:32:47;5.50;;;3.40;;
20511;SDS011;10414;52.074;5.126;2022-08-14T13:35:15;5.30;;;3.30;;
20511;SDS011;10414;52.074;5.126;2022-08-14T13:37:43;5.28;;;3.83;;
20511;SDS011;10414;52.074;5.126;2022-08-14T13:40:11;5.28;;;3.38;;
20511;SDS011;10414;52.074;5.126;2022-08-14T13:42:41;7.40;;;3.45;;
20511;SDS011;10414;52.074;5.126;2022-08-14T13:45:10;5.93;;;3.25;;
20511;SDS011;10414;52.074;5.126;2022-08-14T13:47:39;5.10;;;3.28;;
20511;SDS011;10414;52.074;5.126;2022-08-14T13:50:07;5.07;;;3.38;;
20511;SDS011;10414;52.074;5.126;2022-08-14T13:52:39;6.03;;;3.70;;
20511;SDS011;10414;52.074;5.126;2022-08-14T13:55:08;6.13;;;3.78;;
20511;SDS011;10414;52.074;5.126;2022-08-14T13:57:38;4.35;;;3.15;;
20511;SDS011;10414;52.074;5.126;2022-08-14T14:00:09;5.32;;;3.75;;
20511;SDS011;10414;52.074;5.126;2022-08-14T14:02:38;5.00;;;3.65;;
20511;SDS011;10414;52.074;5.126;2022-08-14T14:05:07;4.97;;;3.42;;
20511;SDS011;10414;52.074;5.126;2022-08-14T14:07:36;5.07;;;3.58;;
20511;SDS011;10414;52.074;5.126;2022-08-14T14:10:05;4.53;;;3.60;;
20511;SDS011;10414;52.074;5.126;2022-08-14T14:12:35;5.35;;;3.53;;
20511;SDS011;10414;52.074;5.126;2022-08-14T14:15:03;5.22;;;3.50;;
20511;SDS011;10414;52.074;5.126;2022-08-14T14:17:34;8.07;;;3.53;;
20511;SDS011;10414;52.074;5.126;2022-08-14T14:22:29;4.85;;;3.75;;
20511;SDS011;10414;52.074;5.126;2022-08-14T14:24:56;5.15;;;3.75;;
20511;SDS011;10414;52.074;5.126;2022-08-14T14:27:23;5.15;;;3.20;;
20511;SDS011;10414;52.074;5.126;2022-08-14T14:29:53;5.97;;;3.83;;
20511;SDS011;10414;52.074;5.126;2022-08-14T14:32:25;5.85;;;3.97;;
20511;SDS011;10414;52.074;5.126;2022-08-14T14:34:55;5.40;;;3.67;;
20511;SDS011;10414;52.074;5.126;2022-08-14T14:37:25;7.70;;;3.88;;
20511;SDS011;10414;52.074;5.126;2022-08-14T14:39:52;4.47;;;3.50;;
20511;SDS011;10414;52.074;5.126;2022-08-14T14:42:23;7.15;;;4.10;;
20511;SDS011;10414;52.074;5.126;2022-08-14T14:44:52;5.20;;;3.72;;
20511;SDS011;10414;52.074;5.126;2022-08-14T14:47:25;5.80;;;4.18;;
20511;SDS011;10414;52.074;5.126;2022-08-14T14:49:53;5.65;;;4.00;;
20511;SDS011;10414;52.074;5.126;2022-08-14T14:52:23;6.53;;;3.90;;
20511;SDS011;10414;52.074;5.126;2022-08-14T14:54:50;7.85;;;4.10;;
20511;SDS011;10414;52.074;5.126;2022-08-14T14:57:17;6.82;;;4.35;;
20511;SDS011;10414;52.074;5.126;2022-08-14T14:59:44;6.35;;;3.70;;
20511;SDS011;10414;52.074;5.126;2022-08-14T15:02:14;5.25;;;3.83;;
20511;SDS011;10414;52.074;5.126;2022-08-14T15:04:51;6.57;;;3.83;;
20511;SDS011;10414;52.074;5.126;2022-08-14T15:07:19;7.25;;;3.70;;
20511;SDS011;10414;52.074;5.126;2022-08-14T15:09:46;5.32;;;3.70;;
20511;SDS011;10414;52.074;5.126;2022-08-14T15:12:13;7.40;;;4.05;;